Terminal Aerodrome Forecast
Issued by NWS New Orleans/Baton Rouge, LA

Home | Current Version | Previous Version | Text Only | Print | Product List | Glossary On
Versions: 1 2 3 4 5 6 7 8 9 10 11 12
000
FTUS44 KLIX 221100 RRA
TAFBTR
TAF
KBTR 221140Z 2212/2312 02006KT P6SM SKC
     FM221800 02006KT P6SM VCSH BKN050
     FM222100 02008KT P6SM SCT250
     FM230000 04004KT P6SM FEW250=

USA.gov is the U.S. government's official web portal to all federal, state and local government web resources and services.